Time;durP1;ratioP1;P1;durP2;ratioP2;P2;SDS_P1;SDS_P2;PMS_P1;PMS_P2;Temp;Humidity;BMP_temperature;BMP_pressure;BME280_temperature;BME280_humidity;BME280_pressure;Samples;Min_cycle;Max_cycle;Signal;HPM_P1;HPM_P2
2021/10/25 00:01:54;;;;;;;12.23;7.53;;;6.20;99.90;;;;;;5055736;28;20196;-81
2021/10/25 00:04:21;;;;;;;12.57;7.50;;;6.20;99.90;;;;;;5055357;28;20136;-77
2021/10/25 00:06:49;;;;;;;12.57;7.13;;;6.30;99.90;;;;;;5036104;28;20161;-78
2021/10/25 00:09:16;;;;;;;11.15;7.22;;;6.30;99.90;;;;;;5035720;28;20551;-77
2021/10/25 00:11:45;;;;;;;10.70;6.75;;;6.30;99.90;;;;;;5035866;28;20136;-76
2021/10/25 00:14:12;;;;;;;13.18;7.15;;;6.30;99.90;;;;;;5035918;28;20466;-77
2021/10/25 00:16:41;;;;;;;12.40;7.65;;;6.30;99.90;;;;;;5055581;28;20081;-78
2021/10/25 00:19:09;;;;;;;11.70;6.95;;;6.30;99.90;;;;;;5055755;28;20045;-79
2021/10/25 00:21:37;;;;;;;10.85;7.20;;;6.30;99.90;;;;;;5055309;28;20135;-76
2021/10/25 00:24:05;;;;;;;10.77;7.15;;;6.20;99.90;;;;;;5055315;28;20087;-77
2021/10/25 00:26:33;;;;;;;10.57;7.05;;;6.20;99.90;;;;;;5055100;28;20077;-77
2021/10/25 00:29:03;;;;;;;10.45;7.28;;;6.30;99.90;;;;;;5055406;28;20140;-80
2021/10/25 00:31:30;;;;;;;10.80;7.75;;;6.30;99.90;;;;;;5055493;28;20239;-79
2021/10/25 00:33:57;;;;;;;11.48;7.20;;;6.30;99.90;;;;;;5055011;28;20140;-79
2021/10/25 00:36:25;;;;;;;12.90;8.38;;;6.30;99.90;;;;;;5054819;28;20141;-77
2021/10/25 00:38:52;;;;;;;11.43;7.90;;;6.30;99.90;;;;;;5055167;28;20147;-77
2021/10/25 00:41:19;;;;;;;11.55;7.95;;;6.40;99.90;;;;;;5055091;28;20136;-76
2021/10/25 00:43:46;;;;;;;12.23;7.60;;;6.30;99.90;;;;;;5055082;28;20049;-79
2021/10/25 00:46:15;;;;;;;11.45;7.03;;;6.30;99.90;;;;;;5054726;28;20128;-77
2021/10/25 00:48:43;;;;;;;11.52;7.22;;;6.30;99.90;;;;;;5054655;28;20554;-77
2021/10/25 00:51:12;;;;;;;10.70;6.85;;;6.30;99.90;;;;;;5054977;28;20132;-77
2021/10/25 00:53:39;;;;;;;12.75;7.63;;;6.20;99.90;;;;;;5054778;28;20088;-79
2021/10/25 00:56:07;;;;;;;11.48;7.82;;;6.20;99.90;;;;;;5054497;28;20558;-76
2021/10/25 00:58:35;;;;;;;11.95;6.97;;;6.20;99.90;;;;;;5054270;28;20129;-78
2021/10/25 01:01:02;;;;;;;10.95;7.35;;;6.10;99.90;;;;;;5055508;28;20112;-79
2021/10/25 01:03:31;;;;;;;11.93;7.22;;;6.10;99.90;;;;;;5054980;28;20558;-77
2021/10/25 01:05:58;;;;;;;11.18;7.00;;;6.00;99.90;;;;;;5054248;28;20048;-76
2021/10/25 01:08:27;;;;;;;12.52;7.95;;;6.00;99.90;;;;;;5054183;28;20135;-77
2021/10/25 01:10:55;;;;;;;11.38;7.72;;;6.00;99.90;;;;;;5055436;28;20127;-77
2021/10/25 01:13:22;;;;;;;12.30;7.95;;;6.00;99.90;;;;;;5055070;28;20084;-77
2021/10/25 01:15:49;;;;;;;11.60;7.60;;;5.90;99.90;;;;;;5054023;28;20132;-78
2021/10/25 01:18:16;;;;;;;10.98;7.35;;;5.80;99.70;;;;;;5054384;28;20123;-77
2021/10/25 01:20:44;;;;;;;11.40;7.30;;;5.70;99.60;;;;;;5054222;28;20128;-77
2021/10/25 01:23:12;;;;;;;11.90;7.40;;;5.60;99.70;;;;;;5054633;28;20124;-78
2021/10/25 01:25:39;;;;;;;11.55;7.10;;;5.50;99.90;;;;;;5054057;28;20136;-77
2021/10/25 01:28:06;;;;;;;10.45;6.75;;;5.40;99.90;;;;;;5054499;28;20140;-78
2021/10/25 01:30:33;;;;;;;11.77;7.57;;;5.40;99.90;;;;;;5054294;28;20064;-77
2021/10/25 01:33:00;;;;;;;11.20;7.13;;;5.40;99.90;;;;;;5053869;28;20069;-77
2021/10/25 01:35:27;;;;;;;10.63;6.90;;;5.40;99.90;;;;;;5053606;28;20443;-77
2021/10/25 01:37:57;;;;;;;12.80;7.90;;;5.30;99.90;;;;;;5053704;28;20475;-78
2021/10/25 01:40:24;;;;;;;11.10;7.47;;;5.40;99.90;;;;;;5054158;28;20059;-77
2021/10/25 01:42:51;;;;;;;11.73;7.40;;;5.40;99.90;;;;;;5053952;28;20566;-78
2021/10/25 01:45:19;;;;;;;10.75;6.55;;;5.40;99.90;;;;;;5053457;28;20152;-76
2021/10/25 01:47:46;;;;;;;11.15;6.95;;;5.40;99.90;;;;;;5033848;28;20098;-78
2021/10/25 01:50:13;;;;;;;10.77;7.40;;;5.40;99.90;;;;;;5033841;28;20128;-79
2021/10/25 01:52:40;;;;;;;10.90;7.38;;;5.40;99.90;;;;;;5033874;28;20049;-76
2021/10/25 01:55:10;;;;;;;11.07;7.22;;;5.40;99.90;;;;;;5041905;28;20128;-78
2021/10/25 01:57:37;;;;;;;10.40;6.95;;;5.40;99.90;;;;;;5053792;28;20132;-77
2021/10/25 02:00:05;;;;;;;11.88;7.90;;;5.40;99.90;;;;;;5053500;28;20132;-76
2021/10/25 02:02:32;;;;;;;10.95;7.07;;;5.40;99.90;;;;;;5053538;28;20468;-77
2021/10/25 02:05:01;;;;;;;11.63;7.07;;;5.40;99.90;;;;;;5053484;28;20124;-76
2021/10/25 02:07:28;;;;;;;12.68;7.93;;;5.40;99.90;;;;;;5053558;28;20102;-77
2021/10/25 02:09:56;;;;;;;13.45;7.72;;;5.40;99.90;;;;;;5053364;28;20459;-78
2021/10/25 02:12:24;;;;;;;12.27;7.60;;;5.40;99.90;;;;;;5053038;28;20074;-77
2021/10/25 02:14:51;;;;;;;13.10;7.70;;;5.40;99.90;;;;;;5053086;28;20554;-78
2021/10/25 02:17:18;;;;;;;12.23;7.53;;;5.30;99.90;;;;;;5053298;28;20084;-77
2021/10/25 02:19:46;;;;;;;11.55;7.45;;;5.30;99.90;;;;;;5052364;28;20136;-77
2021/10/25 02:22:13;;;;;;;12.98;7.85;;;5.30;99.90;;;;;;5053341;28;20388;-79
2021/10/25 02:24:40;;;;;;;14.15;7.60;;;5.30;99.90;;;;;;5052925;28;20471;-76
2021/10/25 02:27:08;;;;;;;12.40;7.35;;;5.30;99.90;;;;;;5052958;28;20490;-78
2021/10/25 02:29:38;;;;;;;12.45;7.32;;;5.30;99.90;;;;;;5053066;28;20053;-78
2021/10/25 02:32:06;;;;;;;10.25;7.07;;;5.20;99.90;;;;;;5053287;28;20069;-76
2021/10/25 02:34:34;;;;;;;12.05;7.60;;;5.30;99.90;;;;;;5054559;28;20141;-76
2021/10/25 02:37:03;;;;;;;12.32;7.65;;;5.20;99.90;;;;;;5063336;28;20064;-80
2021/10/25 02:39:31;;;;;;;12.45;7.25;;;5.30;99.90;;;;;;5053035;28;20088;-79
2021/10/25 02:41:59;;;;;;;11.43;7.25;;;5.30;99.90;;;;;;5052639;28;20472;-78
2021/10/25 02:44:27;;;;;;;14.23;8.05;;;5.30;99.90;;;;;;5052480;28;20049;-77
2021/10/25 02:46:56;;;;;;;11.15;7.35;;;5.30;99.90;;;;;;5052743;28;20136;-78
2021/10/25 02:49:23;;;;;;;13.68;7.35;;;5.20;99.90;;;;;;5052717;28;20140;-77
2021/10/25 02:51:51;;;;;;;11.75;7.40;;;5.20;99.90;;;;;;5053009;28;20473;-77
2021/10/25 02:54:19;;;;;;;13.82;7.55;;;5.20;99.90;;;;;;5052957;28;20136;-77
2021/10/25 02:56:46;;;;;;;13.48;8.15;;;5.10;99.90;;;;;;5052673;28;20064;-77
2021/10/25 02:59:14;;;;;;;12.07;8.00;;;5.10;99.90;;;;;;5052702;28;20123;-78
2021/10/25 03:01:42;;;;;;;10.93;6.95;;;5.00;99.90;;;;;;5051584;28;20049;-76
2021/10/25 03:04:11;;;;;;;12.05;7.50;;;5.00;99.90;;;;;;5049359;28;20131;-78
2021/10/25 03:06:39;;;;;;;11.55;7.68;;;4.90;99.90;;;;;;5049529;28;20132;-77
2021/10/25 03:09:08;;;;;;;13.10;7.32;;;4.90;99.90;;;;;;5048351;28;20064;-76
2021/10/25 03:11:35;;;;;;;11.88;7.40;;;4.90;99.90;;;;;;5049329;28;20055;-77
2021/10/25 03:14:03;;;;;;;11.80;7.45;;;4.90;99.90;;;;;;5049044;28;20056;-78
2021/10/25 03:16:30;;;;;;;13.55;7.75;;;4.90;99.90;;;;;;5029021;28;20131;-77
2021/10/25 03:18:58;;;;;;;13.90;8.00;;;4.90;99.90;;;;;;5029194;28;20137;-78
2021/10/25 03:21:27;;;;;;;12.48;7.28;;;4.80;99.90;;;;;;5029124;28;20673;-76
2021/10/25 03:23:54;;;;;;;11.82;7.05;;;4.80;99.90;;;;;;5029363;28;20123;-76
2021/10/25 03:26:21;;;;;;;11.80;7.45;;;4.80;99.90;;;;;;5047930;28;20550;-79
2021/10/25 03:28:48;;;;;;;14.23;7.50;;;4.80;99.90;;;;;;5048810;28;20052;-76
2021/10/25 03:31:18;;;;;;;15.10;7.90;;;4.90;99.90;;;;;;5048549;28;20594;-78
2021/10/25 03:33:46;;;;;;;12.73;7.95;;;4.90;99.90;;;;;;5048710;28;20067;-79
2021/10/25 03:36:15;;;;;;;13.85;8.13;;;4.80;99.90;;;;;;5048276;28;20055;-76
2021/10/25 03:38:45;;;;;;;14.13;8.30;;;4.80;99.90;;;;;;5048423;28;20131;-77
2021/10/25 03:41:16;;;;;;;14.05;8.40;;;4.80;99.90;;;;;;5049702;28;20048;-83
2021/10/25 03:43:49;;;;;;;12.30;7.50;;;4.70;99.90;;;;;;5050401;28;20447;-83
2021/10/25 03:46:25;;;;;;;11.60;7.35;;;4.60;99.90;;;;;;5050167;28;20053;-83
2021/10/25 03:48:56;;;;;;;10.90;7.38;;;4.60;99.90;;;;;;5050278;28;20552;-85
2021/10/25 03:51:23;;;;;;;11.68;7.18;;;4.50;99.90;;;;;;5051641;28;20103;-86
2021/10/25 03:54:00;;;;;;;11.38;7.63;;;4.50;99.90;;;;;;5050797;28;20053;-85
2021/10/25 03:56:51;;;;;;;13.55;7.53;;;4.50;99.90;;;;;;5049779;28;20559;-84
2021/10/25 04:13:47;;;;;;;11.40;6.72;;;4.60;99.90;;;;;;5052618;28;20692;-83
2021/10/25 04:27:18;;;;;;;13.30;7.07;;;4.60;99.90;;;;;;5044671;28;20051;-77
2021/10/25 04:29:49;;;;;;;11.07;7.28;;;4.50;99.90;;;;;;5050716;28;20048;-78
2021/10/25 04:32:16;;;;;;;12.43;7.78;;;4.40;99.90;;;;;;5051375;28;20091;-79
2021/10/25 04:34:43;;;;;;;11.32;7.00;;;4.30;99.90;;;;;;5051135;28;20132;-79
2021/10/25 04:37:10;;;;;;;10.07;6.65;;;4.30;99.90;;;;;;5051404;28;20076;-78
2021/10/25 04:39:37;;;;;;;11.30;7.13;;;4.20;99.90;;;;;;5051229;28;20131;-77
2021/10/25 04:42:04;;;;;;;10.65;6.68;;;4.20;99.90;;;;;;5051322;28;20133;-77
2021/10/25 04:44:33;;;;;;;11.68;7.28;;;4.30;99.90;;;;;;5054448;28;20129;-76
2021/10/25 04:47:00;;;;;;;11.80;7.50;;;4.30;99.90;;;;;;5055060;28;20128;-77
2021/10/25 04:49:27;;;;;;;11.25;6.95;;;4.30;99.90;;;;;;5055017;28;20128;-78
2021/10/25 04:51:54;;;;;;;11.70;6.97;;;4.30;99.90;;;;;;5056555;28;20136;-77
2021/10/25 04:54:21;;;;;;;11.88;7.45;;;4.40;99.90;;;;;;5055409;28;20132;-78
2021/10/25 04:56:48;;;;;;;14.95;7.82;;;4.40;99.90;;;;;;5054707;28;20890;-79
2021/10/25 04:59:17;;;;;;;13.35;7.80;;;4.40;99.90;;;;;;5054753;28;20479;-80
2021/10/25 05:01:45;;;;;;;10.68;7.00;;;4.30;99.90;;;;;;5054600;28;20045;-79
2021/10/25 05:04:12;;;;;;;10.65;6.75;;;4.30;99.90;;;;;;5054745;28;20132;-80
2021/10/25 05:06:39;;;;;;;12.95;7.32;;;4.30;99.90;;;;;;5054831;28;20072;-80
2021/10/25 05:09:06;;;;;;;12.70;7.45;;;4.40;99.90;;;;;;5054350;28;20482;-79
2021/10/25 05:11:33;;;;;;;12.35;7.75;;;4.40;99.90;;;;;;5054504;28;20560;-79
2021/10/25 05:14:01;;;;;;;14.35;7.75;;;4.40;99.90;;;;;;5054524;28;20124;-79
2021/10/25 05:16:29;;;;;;;12.25;7.60;;;4.40;99.90;;;;;;5073702;28;20470;-79
2021/10/25 05:18:57;;;;;;;12.38;7.85;;;4.30;99.90;;;;;;5074532;28;20076;-79
2021/10/25 05:21:24;;;;;;;11.93;7.72;;;4.30;99.90;;;;;;5074333;28;20128;-78
2021/10/25 05:23:51;;;;;;;13.63;8.68;;;4.20;99.90;;;;;;5074277;28;20597;-79
2021/10/25 05:26:18;;;;;;;12.95;7.55;;;4.20;99.90;;;;;;5074217;28;20521;-78
2021/10/25 05:28:45;;;;;;;11.45;6.95;;;4.20;99.90;;;;;;5074169;28;20135;-79
2021/10/25 05:31:13;;;;;;;11.63;7.20;;;4.20;99.90;;;;;;5074488;28;20463;-79
2021/10/25 05:33:41;;;;;;;12.40;7.05;;;4.20;99.90;;;;;;5074112;28;20056;-78
2021/10/25 05:36:11;;;;;;;11.40;7.80;;;4.20;99.90;;;;;;5074076;28;20136;-78
2021/10/25 05:38:39;;;;;;;13.43;7.85;;;4.20;99.90;;;;;;5074205;28;20132;-79
2021/10/25 05:41:09;;;;;;;13.05;8.70;;;4.30;99.90;;;;;;5074169;28;20139;-77
2021/10/25 05:43:36;;;;;;;13.00;8.05;;;4.30;99.90;;;;;;5074021;28;20510;-77
2021/10/25 05:46:03;;;;;;;13.00;8.13;;;4.30;99.90;;;;;;5074110;28;20048;-79
2021/10/25 05:48:31;;;;;;;12.63;8.23;;;4.30;99.90;;;;;;5074007;28;20504;-77
2021/10/25 05:50:58;;;;;;;12.75;7.43;;;4.30;99.90;;;;;;5073920;28;20143;-78
2021/10/25 05:53:26;;;;;;;10.88;7.57;;;4.30;99.90;;;;;;5073855;28;20095;-78
2021/10/25 05:55:53;;;;;;;11.32;7.35;;;4.40;99.90;;;;;;5072452;28;20136;-79
2021/10/25 05:58:22;;;;;;;15.20;8.23;;;4.40;99.90;;;;;;5073810;28;20048;-79
2021/10/25 06:00:52;;;;;;;13.45;8.30;;;4.40;99.90;;;;;;5073589;28;20102;-79
2021/10/25 06:03:23;;;;;;;11.80;7.82;;;4.40;99.90;;;;;;5073766;28;20498;-79
2021/10/25 06:05:51;;;;;;;11.23;7.50;;;4.40;99.90;;;;;;5073486;28;20128;-79
2021/10/25 06:08:18;;;;;;;11.73;7.55;;;4.30;99.90;;;;;;5073160;28;20065;-79
2021/10/25 06:10:48;;;;;;;12.38;7.28;;;4.30;99.90;;;;;;5073610;28;20143;-79
2021/10/25 06:13:22;;;;;;;12.18;7.70;;;4.30;99.90;;;;;;5073687;28;20044;-79
2021/10/25 06:15:56;;;;;;;13.27;7.78;;;4.30;99.90;;;;;;5073458;28;20497;-79
2021/10/25 06:18:24;;;;;;;12.55;7.60;;;4.30;99.90;;;;;;5073243;28;20068;-76
2021/10/25 06:20:52;;;;;;;13.07;7.75;;;4.30;99.90;;;;;;5073019;28;20558;-76
2021/10/25 06:23:20;;;;;;;14.13;7.75;;;4.30;99.90;;;;;;5072909;28;20049;-77
2021/10/25 06:25:52;;;;;;;13.25;7.68;;;4.30;99.90;;;;;;5073180;28;20151;-79
2021/10/25 06:28:19;;;;;;;11.85;7.20;;;4.20;99.90;;;;;;5073200;28;20456;-78
2021/10/25 06:30:54;;;;;;;12.35;6.75;;;4.20;99.90;;;;;;5073034;28;20101;-79
2021/10/25 06:33:22;;;;;;;11.27;6.65;;;4.20;99.90;;;;;;5073232;28;20092;-77
2021/10/25 06:35:57;;;;;;;11.80;7.00;;;4.20;99.90;;;;;;5072872;28;20063;-77
2021/10/25 06:38:30;;;;;;;;;;;4.20;99.90;;;;;;5075170;28;20048;-78
2021/10/25 06:40:59;;;;;;;15.27;7.88;;;4.30;99.90;;;;;;5073050;28;19924;-77
2021/10/25 06:43:27;;;;;;;16.58;9.13;;;4.30;99.90;;;;;;5072869;28;20079;-76
2021/10/25 06:45:55;;;;;;;14.35;9.45;;;4.40;99.90;;;;;;5072661;28;20093;-80
2021/10/25 06:48:22;;;;;;;15.30;10.07;;;4.40;99.90;;;;;;5072804;28;20080;-77
2021/10/25 06:50:49;;;;;;;13.27;8.43;;;4.50;99.90;;;;;;5072778;28;20124;-77
2021/10/25 06:53:17;;;;;;;15.95;8.68;;;4.40;99.90;;;;;;5072795;28;20151;-76
2021/10/25 06:55:45;;;;;;;16.92;9.20;;;4.50;99.90;;;;;;5072839;28;20444;-75
2021/10/25 06:58:14;;;;;;;12.30;7.55;;;4.50;99.90;;;;;;5072464;28;20127;-75
2021/10/25 07:00:42;;;;;;;11.82;7.70;;;4.50;99.90;;;;;;5072417;28;20139;-78
2021/10/25 07:03:11;;;;;;;12.32;6.70;;;4.50;99.90;;;;;;5072718;28;20048;-77
2021/10/25 07:05:38;;;;;;;11.80;7.10;;;4.60;99.90;;;;;;5072300;28;20051;-78
2021/10/25 07:08:07;;;;;;;15.27;8.15;;;4.60;99.90;;;;;;5072150;28;20052;-79
2021/10/25 07:10:36;;;;;;;11.57;7.53;;;4.60;99.90;;;;;;5072253;28;20044;-78
2021/10/25 07:13:04;;;;;;;11.40;6.88;;;4.50;99.90;;;;;;5072330;28;20053;-77
2021/10/25 07:15:35;;;;;;;10.48;6.72;;;4.50;99.90;;;;;;5072329;28;20044;-79
2021/10/25 07:18:09;;;;;;;11.88;7.35;;;4.50;99.90;;;;;;5072328;28;20048;-78
2021/10/25 07:21:04;;;;;;;10.80;7.47;;;4.50;99.90;;;;;;5072294;28;20211;-78
2021/10/25 08:11:00;;;;;;;14.90;8.55;;;5.90;99.90;;;;;;5032284;28;20144;-78
2021/10/25 08:13:31;;;;;;;13.02;8.23;;;6.00;99.90;;;;;;5031603;28;20374;-78
2021/10/25 08:16:08;;;;;;;11.93;7.32;;;6.00;99.90;;;;;;5031593;28;20103;-79
2021/10/25 08:18:41;;;;;;;10.77;7.07;;;6.10;99.90;;;;;;5033737;28;20048;-78
2021/10/25 08:21:10;;;;;;;11.43;7.50;;;6.20;99.90;;;;;;5035567;28;20107;-78
2021/10/25 08:23:37;;;;;;;11.30;6.63;;;6.30;99.90;;;;;;5043339;28;20052;-78
2021/10/25 08:26:05;;;;;;;10.80;7.63;;;6.40;99.90;;;;;;5057444;28;20084;-79
2021/10/25 08:28:32;;;;;;;11.70;7.63;;;6.50;99.90;;;;;;5055716;28;20120;-78
2021/10/25 08:31:00;;;;;;;11.13;7.38;;;6.60;99.90;;;;;;5055441;28;20552;-81
2021/10/25 08:33:44;;;;;;;11.45;7.88;;;6.70;99.90;;;;;;5055560;28;20175;-79
2021/10/25 08:36:17;;;;;;;12.02;7.75;;;6.80;99.90;;;;;;5055692;28;20410;-77
2021/10/25 08:41:30;;;;;;;12.07;7.70;;;7.00;99.90;;;;;;5055412;28;20132;-79
2021/10/25 08:43:58;;;;;;;9.18;6.15;;;7.10;99.90;;;;;;5055127;28;20247;-80
2021/10/25 08:46:28;;;;;;;11.07;6.57;;;7.10;99.90;;;;;;5055351;28;20068;-79
2021/10/25 08:48:55;;;;;;;11.13;6.20;;;7.20;99.90;;;;;;5055183;28;20045;-79
2021/10/25 08:51:25;;;;;;;10.90;6.65;;;7.30;99.90;;;;;;5055611;28;20076;-79
2021/10/25 08:53:53;;;;;;;10.60;7.00;;;7.40;99.90;;;;;;5055187;28;20080;-79
2021/10/25 08:56:20;;;;;;;12.98;8.23;;;7.50;99.90;;;;;;5055324;28;20127;-80
2021/10/25 08:58:50;;;;;;;10.35;7.05;;;7.50;99.90;;;;;;5055439;28;20049;-80
2021/10/25 09:01:25;;;;;;;11.55;6.95;;;7.60;99.90;;;;;;5055550;28;20083;-78
2021/10/25 09:04:07;;;;;;;10.05;6.25;;;7.60;99.90;;;;;;5054976;28;20557;-80
2021/10/25 09:06:36;;;;;;;10.18;6.75;;;7.70;99.90;;;;;;5055155;28;20048;-79
2021/10/25 09:09:06;;;;;;;9.30;6.00;;;7.70;99.90;;;;;;5054379;28;20136;-78
2021/10/25 09:11:34;;;;;;;11.68;6.70;;;7.80;99.90;;;;;;5055466;28;20045;-78
2021/10/25 09:14:01;;;;;;;9.88;6.38;;;7.90;99.90;;;;;;5054678;28;20132;-78
2021/10/25 09:16:28;;;;;;;10.38;6.32;;;7.90;99.90;;;;;;5055317;28;20140;-80
2021/10/25 09:18:55;;;;;;;8.48;6.07;;;8.00;99.90;;;;;;5054719;28;20139;-80
2021/10/25 09:21:22;;;;;;;8.48;5.72;;;8.00;99.90;;;;;;5054728;28;20135;-80
2021/10/25 09:23:52;;;;;;;9.32;6.10;;;8.10;99.90;;;;;;5053769;28;20494;-79
2021/10/25 09:26:23;;;;;;;8.48;5.47;;;8.20;99.90;;;;;;5053601;28;20457;-80
2021/10/25 09:28:53;;;;;;;10.77;6.30;;;8.30;99.90;;;;;;5052374;28;20045;-79
2021/10/25 09:31:25;;;;;;;8.77;5.72;;;8.40;99.90;;;;;;5051363;28;20123;-79
2021/10/25 09:33:57;;;;;;;9.05;6.07;;;8.50;99.90;;;;;;5050979;28;20045;-79
2021/10/25 09:36:32;;;;;;;10.48;6.13;;;8.60;99.90;;;;;;5051150;28;20053;-79
2021/10/25 09:39:06;;;;;;;10.25;6.25;;;8.70;99.90;;;;;;5051732;28;20106;-79
2021/10/25 09:42:07;;;;;;;9.25;6.10;;;8.70;99.90;;;;;;5051207;28;20127;-78
2021/10/25 09:50:09;;;;;;;11.85;7.63;;;9.00;99.90;;;;;;5049909;28;20068;-80
2021/10/25 09:52:39;;;;;;;11.35;7.70;;;9.10;99.90;;;;;;5051390;28;20045;-82
2021/10/25 09:55:12;;;;;;;12.38;7.72;;;9.10;99.90;;;;;;5049563;28;20087;-82
2021/10/25 09:57:43;;;;;;;11.48;7.80;;;9.10;99.90;;;;;;5051329;28;20049;-82
2021/10/25 10:00:11;;;;;;;10.70;6.88;;;9.20;99.90;;;;;;5052411;28;20083;-79
2021/10/25 10:02:39;;;;;;;9.90;6.47;;;9.30;99.90;;;;;;5052163;28;20061;-81
2021/10/25 10:05:10;;;;;;;9.50;6.32;;;9.30;99.90;;;;;;5049776;28;20136;-81
2021/10/25 10:07:39;;;;;;;10.13;5.90;;;9.40;99.90;;;;;;5052222;28;20053;-82
2021/10/25 10:10:10;;;;;;;10.27;6.22;;;9.50;99.90;;;;;;5054718;28;20091;-82
2021/10/25 10:12:42;;;;;;;8.32;6.20;;;9.50;99.90;;;;;;5051926;28;20057;-80
2021/10/25 10:15:11;;;;;;;11.50;6.70;;;9.60;99.90;;;;;;5051457;28;20052;-82
2021/10/25 10:17:44;;;;;;;10.77;6.93;;;9.70;99.90;;;;;;5051501;28;20061;-82
2021/10/25 10:20:15;;;;;;;11.52;7.07;;;9.80;99.90;;;;;;5051295;28;20485;-83
2021/10/25 10:22:51;;;;;;;10.10;6.35;;;9.90;99.90;;;;;;5052294;28;20049;-82
2021/10/25 10:25:29;;;;;;;10.98;6.30;;;10.00;99.90;;;;;;5051733;28;20063;-83
2021/10/25 10:28:06;;;;;;;8.38;5.25;;;10.10;99.90;;;;;;5051599;28;20048;-83
2021/10/25 10:30:49;;;;;;;7.95;5.45;;;10.10;99.90;;;;;;5051627;28;20131;-81
2021/10/25 10:33:16;;;;;;;9.32;6.15;;;10.30;99.90;;;;;;5050587;28;20045;-80
2021/10/25 10:35:46;;;;;;;10.15;5.60;;;10.30;99.90;;;;;;5050739;28;20139;-81
2021/10/25 10:38:14;;;;;;;8.65;6.00;;;10.40;99.90;;;;;;5050535;28;20049;-80
2021/10/25 10:40:44;;;;;;;8.65;5.15;;;10.50;99.90;;;;;;5050356;28;20136;-80
2021/10/25 10:43:23;;;;;;;8.02;5.57;;;10.70;99.90;;;;;;5050277;28;20060;-80
2021/10/25 10:46:00;;;;;;;8.50;5.15;;;10.80;99.90;;;;;;5050377;28;20052;-80
2021/10/25 10:48:30;;;;;;;8.73;5.38;;;11.00;99.90;;;;;;5049787;28;20464;-82
2021/10/25 10:51:07;;;;;;;8.40;5.40;;;;;;;;;;5051026;28;20391;-81
2021/10/25 10:53:40;;;;;;;7.38;5.03;;;;;;;;;;5050991;28;20384;-81
2021/10/25 10:56:22;;;;;;;6.05;4.15;;;;;;;;;;5051225;28;20123;-81
2021/10/25 10:59:05;;;;;;;6.85;4.43;;;;;;;;;;5051137;28;20053;-81
2021/10/25 11:01:34;;;;;;;7.38;4.50;;;;;;;;;;5050260;28;20049;-82
2021/10/25 11:04:04;;;;;;;8.23;4.50;;;11.60;99.90;;;;;;5050279;28;20048;-80
2021/10/25 11:06:34;;;;;;;7.80;4.32;;;11.70;99.90;;;;;;5049827;28;20053;-81
2021/10/25 11:09:09;;;;;;;6.07;3.60;;;11.80;99.90;;;;;;5049603;28;20053;-82
2021/10/25 11:11:40;;;;;;;7.13;3.90;;;11.80;99.90;;;;;;5049897;28;20373;-81
2021/10/25 11:14:13;;;;;;;6.63;3.35;;;11.80;99.90;;;;;;5049356;28;20487;-83
2021/10/25 11:16:42;;;;;;;6.20;3.60;;;11.80;99.90;;;;;;5049689;28;20053;-82
2021/10/25 11:19:11;;;;;;;5.82;3.42;;;11.90;99.90;;;;;;5050026;28;20044;-81
2021/10/25 11:21:41;;;;;;;5.68;3.30;;;11.90;99.90;;;;;;5049661;28;20060;-80
2021/10/25 11:24:11;;;;;;;6.18;3.38;;;12.00;99.90;;;;;;5049875;28;20053;-82
2021/10/25 11:26:45;;;;;;;5.68;3.10;;;12.00;99.90;;;;;;5049730;28;20059;-84
2021/10/25 11:29:15;;;;;;;7.72;4.03;;;12.10;99.90;;;;;;5049656;28;20057;-84
2021/10/25 11:31:45;;;;;;;6.25;3.70;;;12.10;99.90;;;;;;5049879;28;20458;-82
2021/10/25 11:34:18;;;;;;;7.68;3.70;;;12.00;99.90;;;;;;5049764;28;20135;-83
2021/10/25 11:36:55;;;;;;;6.40;3.08;;;12.20;99.90;;;;;;5049628;28;20064;-81
2021/10/25 11:39:34;;;;;;;6.60;3.60;;;12.30;99.90;;;;;;5048658;28;20135;-81
2021/10/25 11:42:06;;;;;;;7.82;4.35;;;12.30;99.90;;;;;;5049486;28;20073;-81
2021/10/25 11:44:34;;;;;;;5.80;3.72;;;12.40;99.90;;;;;;5049489;28;20132;-80
2021/10/25 11:47:01;;;;;;;8.48;4.10;;;12.50;99.90;;;;;;5050191;28;20084;-79
2021/10/25 11:49:29;;;;;;;5.80;3.55;;;12.40;99.90;;;;;;5049421;28;20108;-78
2021/10/25 11:51:58;;;;;;;5.57;3.55;;;12.70;99.90;;;;;;5048432;28;20128;-78
2021/10/25 11:54:26;;;;;;;5.57;3.30;;;12.70;99.90;;;;;;5048845;28;20132;-79
2021/10/25 11:56:55;;;;;;;6.40;3.20;;;12.90;99.90;;;;;;5050803;28;20079;-79
2021/10/25 11:59:24;;;;;;;6.07;3.25;;;13.00;99.90;;;;;;5052836;28;20443;-79
2021/10/25 12:01:52;;;;;;;5.82;3.38;;;13.20;99.90;;;;;;5049533;28;20049;-81
2021/10/25 12:04:21;;;;;;;5.38;3.10;;;13.40;99.90;;;;;;5049471;28;20076;-82
2021/10/25 12:07:03;;;;;;;5.15;3.00;;;13.60;99.90;;;;;;5048628;28;20164;-80
2021/10/25 12:09:32;;;;;;;5.05;3.00;;;;;;;;;;5049126;28;20079;-80
2021/10/25 12:12:09;;;;;;;5.25;2.67;;;;;;;;;;5048078;28;20470;-81
2021/10/25 12:14:43;;;;;;;5.32;3.00;;;;;;;;;;5048847;28;20490;-80
2021/10/25 12:17:18;;;;;;;6.55;3.20;;;;;;;;;;5049352;28;20049;-81
2021/10/25 12:19:46;;;;;;;5.38;3.10;;;;;;;;;;5049739;28;20143;-82
2021/10/25 12:22:18;;;;;;;6.30;2.92;;;;;;;;;;5050034;28;20045;-80
2021/10/25 12:24:48;;;;;;;5.70;3.17;;;15.40;99.90;;;;;;5048963;28;20053;-80
2021/10/25 12:27:17;;;;;;;5.78;3.10;;;15.60;99.90;;;;;;5049327;28;20135;-81
2021/10/25 12:29:46;;;;;;;6.65;2.85;;;15.90;99.90;;;;;;5049067;28;20077;-82
2021/10/25 12:32:14;;;;;;;6.88;2.97;;;16.10;99.90;;;;;;5048504;28;20049;-81
2021/10/25 12:34:54;;;;;;;5.00;2.80;;;16.40;99.10;;;;;;5049091;28;20455;-80
2021/10/25 12:37:24;;;;;;;5.22;2.83;;;16.40;99.10;;;;;;5049248;28;20151;-80
2021/10/25 12:39:51;;;;;;;5.55;2.90;;;16.90;99.90;;;;;;5048757;28;20414;-80
2021/10/25 12:42:18;;;;;;;4.63;2.90;;;16.80;99.90;;;;;;5049182;28;20139;-81
2021/10/25 12:44:52;;;;;;;5.28;2.85;;;;;;;;;;5049109;28;20136;-79
2021/10/25 12:47:24;;;;;;;6.43;3.20;;;;;;;;;;5049047;28;20158;-80
2021/10/25 12:49:57;;;;;;;5.22;2.63;;;;;;;;;;5048937;28;20080;-81
2021/10/25 12:52:28;;;;;;;5.95;2.80;;;;;;;;;;5048841;28;20136;-81
2021/10/25 12:54:59;;;;;;;5.40;2.95;;;;;;;;;;5048762;28;20176;-80
2021/10/25 12:57:30;;;;;;;6.07;3.33;;;;;;;;;;5048542;28;20077;-81
2021/10/25 13:00:05;;;;;;;5.03;2.97;;;;;;;;;;5049190;28;20141;-80
2021/10/25 13:02:32;;;;;;;4.72;3.03;;;;;;;;;;5055103;28;20501;-83
2021/10/25 13:05:13;;;;;;;6.03;3.28;;;;;;;;;;5058258;28;20052;-84
2021/10/25 13:07:46;;;;;;;5.55;2.88;;;;;;;;;;5052881;28;20087;-80
2021/10/25 13:10:13;;;;;;;5.88;3.00;;;18.60;91.60;;;;;;5052074;28;20049;-80
2021/10/25 13:12:40;;;;;;;4.97;2.47;;;18.50;67.70;;;;;;5053288;28;20127;-83
2021/10/25 13:15:10;;;;;;;5.60;2.47;;;18.80;65.50;;;;;;5053013;28;20299;-80
2021/10/25 13:17:37;;;;;;;5.82;2.55;;;19.10;64.00;;;;;;5052592;28;20079;-80
2021/10/25 13:20:07;;;;;;;4.57;2.20;;;19.60;63.60;;;;;;5052780;28;20045;-80
2021/10/25 13:22:34;;;;;;;4.15;2.22;;;20.30;60.90;;;;;;5052442;28;20164;-81
2021/10/25 13:25:01;;;;;;;3.22;1.70;;;21.30;56.60;;;;;;5052285;28;20128;-80
2021/10/25 13:27:28;;;;;;;3.38;1.42;;;22.60;52.60;;;;;;5052340;28;20049;-80
2021/10/25 13:29:55;;;;;;;2.63;1.30;;;24.30;46.90;;;;;;5052379;28;20100;-81
2021/10/25 13:32:24;;;;;;;3.40;1.50;;;26.30;43.70;;;;;;5052215;28;20113;-79
2021/10/25 13:34:51;;;;;;;12.43;7.80;;;28.40;39.40;;;;;;5052116;28;20132;-80
2021/10/25 13:37:19;;;;;;;21.73;14.35;;;;;;;;;;5051052;28;20487;-82
2021/10/25 13:39:46;;;;;;;5.55;3.38;;;32.20;66.20;;;;;;5051558;28;20483;-81
2021/10/25 13:42:15;;;;;;;5.93;3.45;;;33.50;33.80;;;;;;5051102;28;20056;-81
2021/10/25 13:44:42;;;;;;;3.30;1.70;;;34.70;32.50;;;;;;5056564;28;20053;-82
2021/10/25 13:47:09;;;;;;;3.85;1.60;;;35.80;31.40;;;;;;5052522;28;20077;-80
2021/10/25 13:49:38;;;;;;;3.38;1.48;;;36.40;30.50;;;;;;5052666;28;20057;-81
2021/10/25 13:52:06;;;;;;;3.60;1.60;;;37.00;30.10;;;;;;5052413;28;20565;-79
2021/10/25 13:54:33;;;;;;;3.08;1.60;;;37.50;30.00;;;;;;5052296;28;20044;-83
2021/10/25 13:57:01;;;;;;;3.65;1.50;;;37.30;29.60;;;;;;5051085;28;20084;-80
2021/10/25 13:59:28;;;;;;;3.60;1.58;;;37.30;29.60;;;;;;5052098;28;20532;-81
2021/10/25 14:01:56;;;;;;;4.25;1.50;;;36.90;29.70;;;;;;5052224;28;20064;-81
2021/10/25 14:04:23;;;;;;;3.67;1.63;;;;;;;;;;5051780;28;20057;-80
2021/10/25 14:06:53;;;;;;;3.35;1.45;;;34.20;29.60;;;;;;5051143;28;20095;-81
2021/10/25 14:09:20;;;;;;;4.18;1.65;;;33.00;30.70;;;;;;5012560;28;20054;-81
2021/10/25 14:11:51;;;;;;;3.58;1.63;;;31.60;31.10;;;;;;5011799;28;20132;-82
2021/10/25 14:14:19;;;;;;;4.15;1.50;;;31.00;31.70;;;;;;5011417;28;20132;-81
2021/10/25 14:16:53;;;;;;;4.25;1.70;;;31.50;31.90;;;;;;5008898;28;20057;-77
2021/10/25 14:19:21;;;;;;;4.18;1.50;;;32.50;31.30;;;;;;5010829;28;20108;-78
2021/10/25 14:21:51;;;;;;;3.00;1.48;;;33.70;31.00;;;;;;5010958;28;20141;-77
2021/10/25 14:24:21;;;;;;;3.90;1.60;;;35.10;30.70;;;;;;5010737;28;20049;-78
2021/10/25 14:26:49;;;;;;;3.40;1.73;;;35.60;30.30;;;;;;5010858;28;20555;-77
2021/10/25 14:29:17;;;;;;;3.40;1.70;;;34.90;30.40;;;;;;5010300;28;20482;-77